Aeroporto :
LOGIN :

Iscrizione | Disclaimer

   EN    FR    IT 

 










Sommario :    VFR   VFR Marginale   IFR   IFR Intensivo   IFR Molto Intensivo
Visibilità : 
Base nubi : 
>= 8 km
>= 3000ft
5 / 8 km
1000 / 3000 ft
1500m / 5 km
500 / 1000 ft
800 / 1500m
200 / 500 ft
< 800m
< 200 ft
Simboli :   Temporali  Nebbia  Neve Forte  Precipitazioni Forti  Vento > 20 kt
SIGMETs :   Varie  Temporali  Ghiacco  Turbolenza  Onda orograficha  Ceneri Vulcaniche






- Altitudine del aeroporto : 755 ft
- Codice IATA : KSC


LZKZ - Kosice

ULTIMO METAR :
  • 270000Z 01003KT 0900 R01/1200D FZFG OVC002 M02/M03 Q1019

METARs OBSOLETI :
  • 262330Z 11002KT 0700 R01/1200D FZFG OVC002 M02/M02 Q1020
  • 262300Z 13001KT 0400 R01/P2000N FZFG BKN001 BKN007 M02/M03 Q1020
  • 262230Z VRB01KT 0400 R01/0800N FZFG BKN001 OVC002 M02/M03 Q1020
  • 262214Z 12001KT 0500 R01/0900U FZFG BKN001 OVC003 M02/M03 Q1020
  • 262200Z VRB01KT 1000 R01/0700N BR BCFG BKN001 OVC003 M02/M03 Q1021
  • 262134Z 15002KT 1200 R01/1000D BR BCFG BKN002 OVC004 M02/M03 Q1021

TAF TAF LZKZ
Valido dal 27 a 00 ore il 28 a 00 ore UTC


262300Z 2700/2800 VRB02KT 1500 BR SCT002 OVC005
TEMPO 2700/2708 0500 FZFG SCT001 OVC002
PROB40
TEMPO 2700/2706 0200 -SG FZFG VV001
TEMPO 2711/2715 20006KT 3000 BR SCT005 BKN008
TEMPO 2718/2800 0100 FZFG OVC002



MetMap, La meteo Aeronautica in un colpo d'occhio ! - Copyright ORBIFLY Dicembre 2007 - Disclaimer

ORBIFLY MET'MAP TEAM :

Programmazione e sviluppo : Alexandra Zaïnal
Concezione : Baudouin d'Aumeries
Aiuto per la programmazione : Marc-Olivier Méhu
Supporto tecnico e logistico : Manuel Goepfert
Aiuto per la traduzione : Arnaldo La Scala

Contatto : metmap@orbifly.com




FONTI E CREDITI :

   NOAA